createdAt,value
2023-05-05T00:00:21.598Z,43.38
2023-05-05T00:03:09.347Z,43.22
2023-05-05T00:05:36.631Z,43.34
2023-05-05T00:08:04.430Z,43.45
2023-05-05T00:10:32.505Z,43.45
2023-05-05T00:13:00.110Z,43.23
2023-05-05T00:15:27.980Z,43.26
2023-05-05T00:17:56.076Z,43.38
2023-05-05T00:20:23.472Z,43.46
2023-05-05T00:22:51.012Z,43.50
2023-05-05T00:25:18.472Z,43.46
2023-05-05T00:27:45.992Z,43.36
2023-05-05T00:30:13.696Z,43.41
2023-05-05T00:32:41.535Z,43.63
2023-05-05T00:35:08.966Z,43.49
2023-05-05T00:37:36.535Z,43.66
2023-05-05T00:40:03.971Z,43.66
2023-05-05T00:42:45.872Z,43.48
2023-05-05T00:45:15.372Z,43.54
2023-05-05T00:47:45.203Z,43.62
2023-05-05T00:50:21.539Z,43.68
2023-05-05T00:52:50.947Z,43.75
2023-05-05T00:55:18.813Z,43.78
2023-05-05T00:57:48.305Z,43.67
2023-05-05T01:00:16.592Z,43.70
2023-05-05T01:02:44.851Z,43.72
2023-05-05T01:05:14.338Z,43.79
2023-05-05T01:07:50.685Z,43.66
2023-05-05T01:10:38.319Z,43.96
2023-05-05T01:13:18.276Z,43.77
2023-05-05T01:16:04.441Z,43.71
2023-05-05T01:18:31.991Z,43.71
2023-05-05T01:21:11.287Z,43.98
2023-05-05T01:24:00.814Z,43.97
2023-05-05T01:26:43.789Z,43.96
2023-05-05T01:29:11.231Z,43.97
2023-05-05T01:31:51.861Z,43.88
2023-05-05T01:34:26.195Z,43.98
2023-05-05T01:36:59.460Z,44.00
2023-05-05T01:39:31.478Z,43.95
2023-05-05T01:42:02.719Z,43.94
2023-05-05T01:44:32.949Z,43.95
2023-05-05T01:47:02.560Z,43.99
2023-05-05T01:49:32.840Z,43.98
2023-05-05T01:52:03.610Z,44.14
2023-05-05T01:54:34.544Z,43.97
2023-05-05T01:57:04.894Z,44.14
2023-05-05T01:59:33.894Z,44.12
2023-05-05T02:02:02.897Z,44.08
2023-05-05T02:04:33.111Z,44.12
2023-05-05T02:07:02.148Z,44.13
2023-05-05T02:09:31.472Z,44.01
2023-05-05T02:12:01.976Z,44.16
2023-05-05T02:14:31.003Z,44.31
2023-05-05T02:16:59.001Z,44.24
2023-05-05T02:19:33.866Z,44.27
2023-05-05T02:22:01.155Z,44.14
2023-05-05T02:24:29.234Z,44.29
2023-05-05T02:26:58.924Z,44.41
2023-05-05T02:29:32.784Z,44.37
2023-05-05T02:32:09.708Z,44.36
2023-05-05T02:34:40.183Z,44.36
2023-05-05T02:37:11.121Z,44.30
2023-05-05T02:39:45.837Z,44.31
2023-05-05T02:42:16.948Z,44.40
2023-05-05T02:44:46.268Z,44.44
2023-05-05T02:47:13.574Z,44.44
2023-05-05T02:49:42.484Z,44.46
2023-05-05T02:52:09.837Z,44.37
2023-05-05T02:54:37.428Z,44.39
2023-05-05T02:57:04.683Z,44.41
2023-05-05T02:59:47.394Z,44.39
2023-05-05T03:02:17.922Z,44.56
2023-05-05T03:04:49.341Z,44.52
2023-05-05T03:07:24.981Z,44.46
2023-05-05T03:10:03.209Z,44.67
2023-05-05T03:12:38.337Z,44.53
2023-05-05T03:15:09.224Z,44.33
2023-05-05T03:17:37.759Z,44.51
2023-05-05T03:20:07.819Z,44.64
2023-05-05T03:22:37.189Z,44.69
2023-05-05T03:25:06.099Z,44.58
2023-05-05T03:27:33.429Z,44.65
2023-05-05T03:30:01.059Z,44.56
2023-05-05T03:32:28.812Z,44.57
2023-05-05T03:34:56.719Z,44.56
2023-05-05T03:37:24.004Z,44.58
2023-05-05T03:39:51.496Z,44.53
2023-05-05T03:42:18.765Z,44.72
2023-05-05T03:44:46.453Z,44.81
2023-05-05T03:47:13.743Z,44.64
2023-05-05T03:49:42.007Z,44.65
2023-05-05T03:52:09.252Z,44.79
2023-05-05T03:54:36.775Z,44.65
2023-05-05T03:57:04.184Z,44.77
2023-05-05T03:59:31.768Z,44.82
2023-05-05T04:01:59.071Z,44.59
2023-05-05T04:04:26.673Z,44.79
2023-05-05T04:06:54.024Z,44.79
2023-05-05T04:09:21.508Z,44.78
2023-05-05T04:11:48.801Z,44.82
2023-05-05T04:14:16.489Z,44.71
2023-05-05T04:16:43.756Z,44.77
2023-05-05T04:19:13.084Z,44.68
2023-05-05T04:21:40.410Z,44.69
2023-05-05T04:24:07.931Z,44.70
2023-05-05T04:26:35.851Z,44.83
2023-05-05T04:29:03.808Z,44.73
2023-05-05T04:31:31.991Z,44.89
2023-05-05T04:33:59.561Z,44.62
2023-05-05T04:36:26.789Z,44.91
2023-05-05T04:38:54.342Z,44.74
2023-05-05T04:41:21.758Z,44.72
2023-05-05T04:43:49.360Z,44.90
2023-05-05T04:46:16.608Z,44.89
2023-05-05T04:48:44.402Z,44.89
2023-05-05T04:51:12.712Z,45.12
2023-05-05T04:53:40.349Z,45.18
2023-05-05T04:56:07.627Z,45.04
2023-05-05T04:58:35.948Z,45.30
2023-05-05T05:01:03.460Z,45.45
2023-05-05T05:03:32.022Z,45.48
2023-05-05T05:05:59.539Z,45.36
2023-05-05T05:08:27.097Z,45.62
2023-05-05T05:10:54.297Z,45.59
2023-05-05T05:13:21.902Z,45.67
2023-05-05T05:15:49.338Z,45.50
2023-05-05T05:18:17.012Z,45.77
2023-05-05T05:20:44.312Z,45.85
2023-05-05T05:23:11.823Z,45.62
2023-05-05T05:25:39.257Z,45.92
2023-05-05T05:28:10.778Z,45.80
2023-05-05T05:30:38.370Z,45.93
2023-05-05T05:33:06.732Z,45.82
2023-05-05T05:35:35.236Z,45.85
2023-05-05T05:38:02.793Z,45.75
2023-05-05T05:40:30.341Z,45.86
2023-05-05T05:42:58.008Z,45.75
2023-05-05T05:45:25.394Z,45.87
2023-05-05T05:47:52.978Z,45.72
2023-05-05T05:50:21.008Z,45.84
2023-05-05T05:52:48.541Z,45.71
2023-05-05T05:55:15.857Z,45.81
2023-05-05T05:57:44.416Z,45.69
2023-05-05T06:00:12.496Z,45.84
2023-05-05T06:02:40.126Z,45.74
2023-05-05T06:05:07.839Z,45.70
2023-05-05T06:07:35.442Z,45.66
2023-05-05T06:10:11.234Z,45.63
2023-05-05T06:12:46.473Z,45.79
2023-05-05T06:15:13.788Z,45.75
2023-05-05T06:17:41.281Z,45.73
2023-05-05T06:20:09.145Z,45.73
2023-05-05T06:22:36.898Z,45.70
2023-05-05T06:25:04.349Z,45.77
2023-05-05T06:27:31.873Z,45.65
2023-05-05T06:29:59.463Z,45.70
2023-05-05T06:32:27.005Z,45.68
2023-05-05T06:34:54.284Z,45.64
2023-05-05T06:37:21.866Z,45.51
2023-05-05T06:39:49.132Z,45.63
2023-05-05T06:42:16.671Z,45.58
2023-05-05T06:44:43.898Z,45.55
2023-05-05T06:47:12.112Z,45.54
2023-05-05T06:49:39.373Z,45.65
2023-05-05T06:52:08.230Z,45.58
2023-05-05T06:54:35.564Z,45.66
2023-05-05T06:57:03.255Z,45.62
2023-05-05T06:59:30.716Z,45.45
2023-05-05T07:01:58.299Z,45.38
2023-05-05T07:04:26.830Z,45.49
2023-05-05T07:06:55.218Z,45.47
2023-05-05T07:09:22.758Z,45.40
2023-05-05T07:11:50.511Z,45.44
2023-05-05T07:14:17.807Z,45.50
2023-05-05T07:16:45.357Z,45.54
2023-05-05T07:19:12.628Z,45.31
2023-05-05T07:21:40.150Z,45.52
2023-05-05T07:24:07.555Z,45.43
2023-05-05T07:26:35.356Z,45.50
2023-05-05T07:29:04.397Z,45.38
2023-05-05T07:31:31.907Z,45.40
2023-05-05T07:33:59.209Z,45.48
2023-05-05T07:36:27.891Z,45.35
2023-05-05T07:38:55.409Z,45.33
2023-05-05T07:41:23.008Z,45.37
2023-05-05T07:43:50.270Z,45.38
2023-05-05T07:46:18.082Z,45.24
2023-05-05T07:48:45.421Z,45.40
2023-05-05T07:51:13.024Z,45.43
2023-05-05T07:53:41.068Z,45.40
2023-05-05T07:56:09.039Z,45.34
2023-05-05T07:58:36.361Z,45.33
2023-05-05T08:01:06.458Z,45.33
2023-05-05T08:03:34.324Z,45.35
2023-05-05T08:06:08.119Z,45.51
2023-05-05T08:08:35.981Z,45.25
2023-05-05T08:11:04.013Z,45.36
2023-05-05T08:13:32.444Z,45.09
2023-05-05T08:16:00.541Z,45.31
2023-05-05T08:18:27.926Z,45.31
2023-05-05T08:20:55.556Z,45.16
2023-05-05T08:23:22.835Z,45.07
2023-05-05T08:25:50.328Z,45.16
2023-05-05T08:28:17.590Z,45.08
2023-05-05T08:30:45.102Z,45.14
2023-05-05T08:33:12.518Z,45.04
2023-05-05T08:35:40.077Z,45.13
2023-05-05T08:38:07.399Z,44.99
2023-05-05T08:40:38.009Z,45.08
2023-05-05T08:43:05.599Z,45.11
2023-05-05T08:45:33.317Z,44.91
2023-05-05T08:48:03.556Z,45.01
2023-05-05T08:50:32.071Z,45.06
2023-05-05T08:53:02.327Z,45.06
2023-05-05T08:55:34.791Z,45.10
2023-05-05T08:58:05.736Z,44.96
2023-05-05T09:00:33.662Z,44.88
2023-05-05T09:03:04.398Z,44.98
2023-05-05T09:05:32.076Z,44.84
2023-05-05T09:07:59.567Z,44.96
2023-05-05T09:10:28.760Z,44.73
2023-05-05T09:12:56.638Z,44.90
2023-05-05T09:15:24.195Z,44.75
2023-05-05T09:17:51.589Z,44.87
2023-05-05T09:20:19.174Z,44.77
2023-05-05T09:22:47.653Z,44.65
2023-05-05T09:25:17.208Z,44.82
2023-05-05T09:27:46.491Z,44.56
2023-05-05T09:30:32.128Z,44.66
2023-05-05T09:33:00.395Z,44.67
2023-05-05T09:35:28.422Z,44.62
2023-05-05T09:37:55.878Z,44.53
2023-05-05T09:40:23.470Z,44.62
2023-05-05T09:43:01.462Z,44.47
2023-05-05T09:45:29.361Z,44.52
2023-05-05T09:47:59.641Z,44.56
2023-05-05T09:50:30.732Z,44.59
2023-05-05T09:53:02.936Z,44.70
2023-05-05T09:55:31.497Z,44.69
2023-05-05T09:58:17.944Z,44.55
2023-05-05T10:00:46.413Z,44.53
2023-05-05T10:03:13.771Z,44.50
2023-05-05T10:05:51.919Z,44.49
2023-05-05T10:08:21.411Z,44.36
2023-05-05T10:10:54.677Z,44.42
2023-05-05T10:13:23.491Z,44.50
2023-05-05T10:15:56.630Z,44.27
2023-05-05T10:18:28.423Z,44.33
2023-05-05T10:21:01.184Z,44.26
2023-05-05T10:24:00.408Z,44.21
2023-05-05T10:26:34.507Z,44.27
2023-05-05T10:29:04.067Z,44.20
2023-05-05T10:31:45.855Z,44.19
2023-05-05T10:34:37.930Z,44.27
2023-05-05T10:37:06.699Z,44.30
2023-05-05T10:39:36.172Z,44.29
2023-05-05T10:42:03.749Z,44.33
2023-05-05T10:44:34.519Z,44.23
2023-05-05T10:47:02.850Z,44.21
2023-05-05T10:49:42.135Z,44.17
2023-05-05T10:52:34.380Z,44.12
2023-05-05T10:55:05.837Z,44.09
2023-05-05T10:57:39.090Z,44.21
2023-05-05T11:00:08.790Z,44.31
2023-05-05T11:02:37.273Z,44.24
2023-05-05T11:05:18.081Z,44.31
2023-05-05T11:07:49.990Z,44.15
2023-05-05T11:10:23.262Z,44.36
2023-05-05T11:12:54.135Z,44.20
2023-05-05T11:15:27.593Z,44.12
2023-05-05T11:17:56.716Z,44.41
2023-05-05T11:20:36.818Z,44.13
2023-05-05T11:23:04.879Z,44.27
2023-05-05T11:25:40.509Z,44.21
2023-05-05T11:28:18.559Z,44.05
2023-05-05T11:30:54.948Z,44.01
2023-05-05T11:33:33.450Z,44.05
2023-05-05T11:36:09.033Z,44.18
2023-05-05T11:38:36.550Z,44.09
2023-05-05T11:41:33.431Z,44.11
2023-05-05T11:44:16.247Z,44.20
2023-05-05T11:46:52.853Z,44.15
2023-05-05T11:49:35.002Z,44.13
2023-05-05T11:52:08.760Z,44.01
2023-05-05T11:54:38.461Z,44.04
2023-05-05T11:57:07.436Z,44.06
2023-05-05T11:59:37.224Z,44.17
2023-05-05T12:02:04.901Z,43.95
2023-05-05T12:04:32.737Z,44.08
2023-05-05T12:07:00.212Z,43.97
2023-05-05T12:09:27.901Z,43.98
2023-05-05T12:11:57.350Z,43.92
2023-05-05T12:14:25.836Z,43.89
2023-05-05T12:17:03.421Z,44.03
2023-05-05T12:19:33.008Z,44.05
2023-05-05T12:22:04.496Z,43.81
2023-05-05T12:24:32.223Z,43.96
2023-05-05T12:27:17.617Z,43.89
2023-05-05T12:29:45.111Z,44.18
2023-05-05T12:32:23.379Z,43.93
2023-05-05T12:34:57.186Z,43.80
2023-05-05T12:37:26.090Z,43.96
2023-05-05T12:39:54.978Z,43.80
2023-05-05T12:42:23.196Z,44.07
2023-05-05T12:44:50.913Z,43.85
2023-05-05T12:47:32.381Z,43.94
2023-05-05T12:50:00.785Z,43.93
2023-05-05T12:52:42.953Z,43.99
2023-05-05T12:55:11.694Z,44.03
2023-05-05T12:57:39.602Z,43.90
2023-05-05T13:00:17.767Z,44.00
2023-05-05T13:02:45.195Z,44.10
2023-05-05T13:05:12.832Z,43.87
2023-05-05T13:07:51.695Z,43.89
2023-05-05T13:10:19.314Z,43.97
2023-05-05T13:12:47.298Z,43.99
2023-05-05T13:15:14.914Z,43.86
2023-05-05T13:17:42.320Z,43.89
2023-05-05T13:20:11.196Z,43.94
2023-05-05T13:22:38.492Z,44.02
2023-05-05T13:25:07.233Z,43.85
2023-05-05T13:27:34.748Z,44.11
2023-05-05T13:30:02.313Z,44.15
2023-05-05T13:32:29.668Z,44.12
2023-05-05T13:34:57.896Z,43.95
2023-05-05T13:37:25.176Z,44.11
2023-05-05T13:39:53.155Z,44.07
2023-05-05T13:42:20.470Z,44.01
2023-05-05T13:44:48.012Z,44.03
2023-05-05T13:47:15.359Z,43.96
2023-05-05T13:49:42.901Z,44.00
2023-05-05T13:52:10.178Z,44.08
2023-05-05T13:54:38.016Z,43.90
2023-05-05T13:57:07.887Z,43.86
2023-05-05T13:59:35.624Z,43.99
2023-05-05T14:02:03.079Z,44.02
2023-05-05T14:04:30.857Z,44.07
2023-05-05T14:06:58.554Z,44.07
2023-05-05T14:09:26.182Z,44.11
2023-05-05T14:11:53.523Z,43.79
2023-05-05T14:14:21.037Z,43.80
2023-05-05T14:16:50.205Z,43.92
2023-05-05T14:19:18.031Z,43.85
2023-05-05T14:21:45.282Z,44.08
2023-05-05T14:24:12.798Z,43.98
2023-05-05T14:26:40.286Z,44.08
2023-05-05T14:29:08.060Z,44.19
2023-05-05T14:31:36.626Z,44.07
2023-05-05T14:34:04.158Z,44.11
2023-05-05T14:36:31.423Z,44.16
2023-05-05T14:38:58.981Z,44.02
2023-05-05T14:41:26.329Z,43.81
2023-05-05T14:43:53.942Z,43.83
2023-05-05T14:46:21.248Z,43.66
2023-05-05T14:48:48.794Z,43.88
2023-05-05T14:51:16.369Z,43.74
2023-05-05T14:53:44.193Z,43.85
2023-05-05T14:56:11.464Z,43.73
2023-05-05T14:58:38.991Z,43.73
2023-05-05T15:01:06.264Z,43.72
2023-05-05T15:03:33.877Z,43.60
2023-05-05T15:06:01.290Z,43.87
2023-05-05T15:08:28.817Z,43.68
2023-05-05T15:10:56.323Z,43.75
2023-05-05T15:13:23.962Z,43.68
2023-05-05T15:15:51.353Z,43.79
2023-05-05T15:18:19.436Z,43.86
2023-05-05T15:20:46.706Z,43.79
2023-05-05T15:23:14.273Z,43.76
2023-05-05T15:25:41.655Z,43.71
2023-05-05T15:28:09.210Z,43.75
2023-05-05T15:30:36.554Z,43.79
2023-05-05T15:33:04.140Z,43.59
2023-05-05T15:35:31.440Z,43.66
2023-05-05T15:37:58.963Z,43.67
2023-05-05T15:40:26.372Z,43.76
2023-05-05T15:42:53.948Z,43.97
2023-05-05T15:45:21.211Z,43.86
2023-05-05T15:47:50.510Z,43.71
2023-05-05T15:50:18.047Z,43.81
2023-05-05T15:52:46.686Z,43.72
2023-05-05T15:55:15.180Z,43.59
2023-05-05T15:57:42.728Z,43.89
2023-05-05T16:00:10.975Z,43.93
2023-05-05T16:02:38.655Z,43.79
2023-05-05T16:05:06.849Z,43.85
2023-05-05T16:07:34.574Z,43.73
2023-05-05T16:10:02.968Z,43.60
2023-05-05T16:12:30.548Z,43.88
2023-05-05T16:14:57.847Z,43.75
2023-05-05T16:17:25.524Z,43.74
2023-05-05T16:19:52.766Z,43.76
2023-05-05T16:22:21.098Z,43.37
2023-05-05T16:24:48.999Z,43.47
2023-05-05T16:27:16.936Z,43.37
2023-05-05T16:29:44.273Z,43.57
2023-05-05T16:32:11.962Z,43.37
2023-05-05T16:34:39.186Z,43.22
2023-05-05T16:37:06.705Z,43.38
2023-05-05T16:39:35.197Z,43.34
2023-05-05T16:42:03.520Z,43.46
2023-05-05T16:44:30.763Z,43.28
2023-05-05T16:46:58.763Z,43.36
2023-05-05T16:49:26.013Z,43.06
2023-05-05T16:51:53.651Z,42.79
2023-05-05T16:54:20.980Z,43.13
2023-05-05T16:56:48.447Z,43.01
2023-05-05T16:59:16.978Z,43.06
2023-05-05T17:01:44.800Z,43.06
2023-05-05T17:04:12.178Z,43.06
2023-05-05T17:06:39.837Z,42.95
2023-05-05T17:09:07.296Z,43.00
2023-05-05T17:11:34.874Z,43.08
2023-05-05T17:14:02.159Z,43.06
2023-05-05T17:16:29.891Z,43.04
2023-05-05T17:18:57.133Z,43.12
2023-05-05T17:21:24.647Z,43.12
2023-05-05T17:23:51.949Z,42.91
2023-05-05T17:26:19.868Z,42.86
2023-05-05T17:28:47.712Z,43.17
2023-05-05T17:31:15.234Z,43.05
2023-05-05T17:33:42.552Z,43.02
2023-05-05T17:36:10.257Z,43.15
2023-05-05T17:38:37.706Z,43.23
2023-05-05T17:41:05.262Z,43.29
2023-05-05T17:43:32.482Z,43.15
2023-05-05T17:46:00.072Z,43.23
2023-05-05T17:48:27.399Z,43.02
2023-05-05T17:50:54.924Z,43.27
2023-05-05T17:53:22.369Z,43.20
2023-05-05T17:55:49.826Z,43.10
2023-05-05T17:58:17.044Z,43.11
2023-05-05T18:00:44.851Z,43.06
2023-05-05T18:03:12.523Z,43.18
2023-05-05T18:05:40.127Z,43.39
2023-05-05T18:08:07.505Z,43.51
2023-05-05T18:10:35.073Z,43.22
2023-05-05T18:13:02.529Z,43.42
2023-05-05T18:15:30.081Z,43.29
2023-05-05T18:17:57.495Z,43.42
2023-05-05T18:20:25.361Z,43.19
2023-05-05T18:22:52.621Z,43.20
2023-05-05T18:25:20.357Z,43.27
2023-05-05T18:27:47.720Z,43.41
2023-05-05T18:30:16.376Z,43.36
2023-05-05T18:32:43.754Z,43.24
2023-05-05T18:35:11.776Z,43.37
2023-05-05T18:37:39.494Z,43.23
2023-05-05T18:40:09.887Z,43.37
2023-05-05T18:42:37.105Z,43.20
2023-05-05T18:45:05.357Z,43.48
2023-05-05T18:47:33.782Z,43.26
2023-05-05T18:50:01.526Z,43.29
2023-05-05T18:52:28.891Z,43.39
2023-05-05T18:54:56.410Z,43.51
2023-05-05T18:57:23.822Z,43.53
2023-05-05T18:59:51.725Z,43.53
2023-05-05T19:02:19.211Z,43.37
2023-05-05T19:04:46.961Z,43.36
2023-05-05T19:07:21.123Z,43.37
2023-05-05T19:09:56.578Z,43.34
2023-05-05T19:12:23.919Z,43.48
2023-05-05T19:14:51.796Z,43.41
2023-05-05T19:17:19.102Z,43.36
2023-05-05T19:19:46.742Z,43.27
2023-05-05T19:22:14.884Z,43.37
2023-05-05T19:24:42.529Z,43.54
2023-05-05T19:27:15.482Z,43.60
2023-05-05T19:29:43.979Z,43.32
2023-05-05T19:32:11.270Z,43.47
2023-05-05T19:34:38.882Z,43.40
2023-05-05T19:37:06.203Z,43.46
2023-05-05T19:39:33.926Z,43.44
2023-05-05T19:42:01.189Z,43.34
2023-05-05T19:44:28.727Z,43.50
2023-05-05T19:46:55.987Z,43.42
2023-05-05T19:49:23.582Z,43.53
2023-05-05T19:51:52.039Z,43.52
2023-05-05T19:54:19.789Z,43.51
2023-05-05T19:56:47.174Z,43.60
2023-05-05T19:59:14.726Z,43.78
2023-05-05T20:01:42.131Z,43.95
2023-05-05T20:04:09.782Z,43.98
2023-05-05T20:06:37.420Z,44.09
2023-05-05T20:09:05.382Z,44.08
2023-05-05T20:11:33.270Z,44.03
2023-05-05T20:14:01.576Z,44.28
2023-05-05T20:16:29.925Z,44.35
2023-05-05T20:18:57.703Z,44.35
2023-05-05T20:21:25.286Z,44.51
2023-05-05T20:23:54.495Z,44.38
2023-05-05T20:26:22.471Z,44.64
2023-05-05T20:28:49.989Z,44.42
2023-05-05T20:31:17.347Z,44.56
2023-05-05T20:33:45.072Z,44.59
2023-05-05T20:36:12.411Z,44.49
2023-05-05T20:38:39.982Z,44.61
2023-05-05T20:41:07.254Z,44.64
2023-05-05T20:43:36.307Z,44.68
2023-05-05T20:46:03.690Z,44.68
2023-05-05T20:48:31.202Z,44.77
2023-05-05T20:50:58.896Z,44.76
2023-05-05T20:53:26.493Z,44.60
2023-05-05T20:55:53.742Z,44.69
2023-05-05T20:58:22.620Z,44.81
2023-05-05T21:00:50.136Z,44.73
2023-05-05T21:03:17.818Z,44.75
2023-05-05T21:05:45.124Z,44.85
2023-05-05T21:08:12.622Z,44.71
2023-05-05T21:10:39.857Z,44.82
2023-05-05T21:13:07.593Z,44.91
2023-05-05T21:15:38.029Z,45.06
2023-05-05T21:18:06.131Z,44.88
2023-05-05T21:20:34.902Z,45.01
2023-05-05T21:23:02.452Z,45.04
2023-05-05T21:25:30.600Z,45.01
2023-05-05T21:27:58.077Z,45.09
2023-05-05T21:30:25.628Z,45.03
2023-05-05T21:32:53.204Z,45.13
2023-05-05T21:35:21.082Z,44.99
2023-05-05T21:37:48.812Z,45.12
2023-05-05T21:40:16.441Z,45.08
2023-05-05T21:42:44.015Z,45.04
2023-05-05T21:45:11.855Z,45.08
2023-05-05T21:47:39.438Z,45.11
2023-05-05T21:50:07.473Z,45.10
2023-05-05T21:52:35.475Z,45.16
2023-05-05T21:55:03.697Z,45.14
2023-05-05T21:57:31.250Z,45.16
2023-05-05T21:59:58.484Z,45.21
2023-05-05T22:02:26.052Z,45.19
2023-05-05T22:04:53.622Z,45.41
2023-05-05T22:07:21.151Z,45.24
2023-05-05T22:09:48.505Z,45.40
2023-05-05T22:12:16.344Z,45.13
2023-05-05T22:14:43.669Z,45.32
2023-05-05T22:17:11.573Z,45.39
2023-05-05T22:19:38.782Z,45.25
2023-05-05T22:22:06.928Z,45.25
2023-05-05T22:24:34.793Z,45.34
2023-05-05T22:27:02.391Z,45.38
2023-05-05T22:29:29.639Z,45.32
2023-05-05T22:31:57.342Z,45.34
2023-05-05T22:34:25.751Z,45.19
2023-05-05T22:36:53.256Z,45.37
2023-05-05T22:39:20.550Z,45.45
2023-05-05T22:41:48.261Z,45.37
2023-05-05T22:44:15.663Z,45.24
2023-05-05T22:46:43.454Z,45.42
2023-05-05T22:49:13.012Z,45.42
2023-05-05T22:51:41.029Z,45.61
2023-05-05T22:54:08.323Z,45.45
2023-05-05T22:56:36.146Z,45.45
2023-05-05T22:59:03.570Z,45.51
2023-05-05T23:01:32.834Z,45.38
2023-05-05T23:04:00.104Z,45.43
2023-05-05T23:06:28.496Z,45.54
2023-05-05T23:08:55.850Z,45.76
2023-05-05T23:11:23.398Z,45.50
2023-05-05T23:13:50.781Z,45.43
2023-05-05T23:16:18.357Z,45.75
2023-05-05T23:18:45.825Z,45.68
2023-05-05T23:21:13.308Z,45.71
2023-05-05T23:23:40.677Z,45.82
2023-05-05T23:26:08.195Z,45.70
2023-05-05T23:28:35.492Z,45.88
2023-05-05T23:31:02.997Z,46.00
2023-05-05T23:33:30.280Z,45.90
2023-05-05T23:35:57.806Z,45.91
2023-05-05T23:38:25.206Z,45.91
2023-05-05T23:40:53.548Z,45.78
2023-05-05T23:43:21.527Z,45.99
2023-05-05T23:45:49.041Z,46.05
2023-05-05T23:48:16.348Z,46.14
2023-05-05T23:50:44.532Z,45.83
2023-05-05T23:53:11.759Z,46.24
2023-05-05T23:55:39.295Z,46.09
2023-05-05T23:58:06.638Z,46.05
